Time;durP1;ratioP1;P1;durP2;ratioP2;P2;SDS_P1;SDS_P2;PMS_P1;PMS_P2;Temp;Humidity;BMP_temperature;BMP_pressure;BME280_temperature;BME280_humidity;BME280_pressure;Samples;Min_cycle;Max_cycle;Signal;HPM_P1;HPM_P2
2023/05/29 00:00:42;;;;;;;4.73;2.50;;;14.00;99.90;;;;;;4958264;28;20697;-59
2023/05/29 00:03:09;;;;;;;3.93;1.80;;;13.90;99.90;;;;;;4942185;28;20234;-62
2023/05/29 00:05:36;;;;;;;4.33;2.43;;;13.90;99.90;;;;;;4925825;28;20320;-60
2023/05/29 00:08:04;;;;;;;6.33;2.50;;;13.80;99.90;;;;;;4957929;28;20293;-58
2023/05/29 00:10:31;;;;;;;6.30;2.50;;;13.80;99.90;;;;;;4950308;28;20293;-60
2023/05/29 00:13:00;;;;;;;6.37;2.53;;;13.70;99.90;;;;;;4934217;29;20197;-59
2023/05/29 00:15:28;;;;;;;5.03;2.40;;;13.60;99.90;;;;;;4943088;28;20218;-58
2023/05/29 00:17:55;;;;;;;4.63;2.30;;;13.60;99.90;;;;;;4930859;29;20721;-60
2023/05/29 00:20:23;;;;;;;5.87;2.40;;;13.60;99.90;;;;;;4947733;28;20302;-60
2023/05/29 00:22:53;;;;;;;2.37;2.10;;;13.70;99.90;;;;;;4934701;29;20227;-65
2023/05/29 00:25:20;;;;;;;3.60;2.13;;;13.70;99.90;;;;;;4952995;28;20191;-61
2023/05/29 00:27:47;;;;;;;5.77;2.87;;;13.80;99.90;;;;;;4932694;29;20909;-61
2023/05/29 00:30:14;;;;;;;6.77;2.50;;;13.80;99.90;;;;;;4945683;28;20318;-59
2023/05/29 00:32:41;;;;;;;3.07;2.27;;;13.80;99.90;;;;;;4952170;28;20562;-60
2023/05/29 00:35:08;;;;;;;3.87;1.80;;;13.70;99.90;;;;;;4940416;28;20549;-62
2023/05/29 00:37:36;;;;;;;5.97;2.17;;;13.60;99.90;;;;;;4952626;28;20202;-62
2023/05/29 00:40:03;;;;;;;5.70;2.13;;;13.80;99.90;;;;;;4954025;28;20207;-60
2023/05/29 00:42:31;;;;;;;4.53;1.73;;;13.90;99.90;;;;;;4944195;28;20314;-60
2023/05/29 00:44:58;;;;;;;8.27;2.10;;;14.00;99.90;;;;;;4934454;28;20273;-61
2023/05/29 00:47:25;;;;;;;8.03;2.03;;;13.90;99.90;;;;;;4943270;28;20256;-60
2023/05/29 00:49:55;;;;;;;3.00;1.70;;;13.70;99.90;;;;;;4965204;28;20206;-60
2023/05/29 00:52:24;;;;;;;5.23;1.93;;;13.70;99.90;;;;;;4951168;28;20279;-60
2023/05/29 00:54:52;;;;;;;8.10;2.00;;;13.70;99.90;;;;;;4946277;28;20195;-60
2023/05/29 00:57:20;;;;;;;11.63;2.13;;;13.60;99.90;;;;;;4934375;29;20290;-62
2023/05/29 00:59:47;;;;;;;5.90;2.37;;;13.40;99.90;;;;;;4935258;28;20207;-60
2023/05/29 01:02:16;;;;;;;7.30;1.70;;;13.20;99.90;;;;;;4951416;23;20789;-57
2023/05/29 01:04:45;;;;;;;8.33;2.63;;;13.20;99.90;;;;;;4948327;28;20282;-59
2023/05/29 01:07:13;;;;;;;3.40;1.73;;;13.40;99.90;;;;;;4937465;29;20226;-57
2023/05/29 01:09:42;;;;;;;5.50;2.03;;;13.30;99.90;;;;;;4954605;28;20191;-57
2023/05/29 01:12:30;;;;;;;6.50;2.63;;;13.30;99.90;;;;;;4921780;29;20229;-59
2023/05/29 01:15:16;;;;;;;2.77;1.83;;;13.50;99.90;;;;;;4951646;28;20590;-59
2023/05/29 01:18:17;;;;;;;6.47;2.10;;;13.30;99.90;;;;;;4940676;28;20183;-59
2023/05/29 01:20:56;;;;;;;6.30;2.30;;;13.00;99.90;;;;;;4924072;28;20570;-58
2023/05/29 01:23:35;;;;;;;7.67;2.20;;;13.10;99.90;;;;;;4942770;29;20191;-60
2023/05/29 01:26:14;;;;;;;6.27;2.30;;;12.90;99.90;;;;;;4939659;28;20690;-59
2023/05/29 01:28:52;;;;;;;5.20;1.90;;;12.80;99.90;;;;;;4942560;28;20206;-59
2023/05/29 01:31:25;;;;;;;5.53;1.97;;;13.00;99.90;;;;;;4934485;29;20216;-59
2023/05/29 01:33:56;;;;;;;4.53;2.37;;;12.90;99.90;;;;;;4945779;28;20206;-59
2023/05/29 01:36:24;;;;;;;6.10;1.90;;;12.80;99.90;;;;;;4940921;28;20198;-59
2023/05/29 01:38:53;;;;;;;6.03;1.97;;;12.70;99.90;;;;;;4964930;28;20668;-60
2023/05/29 01:41:21;;;;;;;6.47;1.77;;;12.90;99.90;;;;;;4929067;29;20205;-59
2023/05/29 01:43:49;;;;;;;5.70;2.07;;;12.70;99.90;;;;;;4928697;28;20203;-59
2023/05/29 01:46:18;;;;;;;5.70;2.10;;;12.70;99.90;;;;;;4926873;29;20215;-61
2023/05/29 01:48:46;;;;;;;8.23;2.20;;;12.80;99.90;;;;;;4922015;28;20660;-60
2023/05/29 01:51:13;;;;;;;9.67;2.10;;;12.80;99.90;;;;;;4939199;28;20211;-60
2023/05/29 01:53:41;;;;;;;4.37;2.00;;;12.60;99.90;;;;;;4933545;28;20246;-61
2023/05/29 01:56:09;;;;;;;5.67;1.73;;;12.20;99.90;;;;;;4931091;29;20584;-61
2023/05/29 01:58:38;;;;;;;2.50;1.53;;;12.10;99.90;;;;;;4926594;28;20290;-60
2023/05/29 02:01:06;;;;;;;6.77;2.23;;;12.10;99.90;;;;;;4926699;29;20282;-61
2023/05/29 02:03:34;;;;;;;6.47;1.67;;;12.00;99.90;;;;;;4929979;28;20242;-61
2023/05/29 02:06:01;;;;;;;7.13;2.00;;;11.90;99.90;;;;;;4927583;29;20208;-60
2023/05/29 02:08:28;;;;;;;6.80;2.27;;;11.90;99.90;;;;;;4910168;29;20226;-59
2023/05/29 02:10:56;;;;;;;10.50;2.00;;;11.90;99.90;;;;;;4922653;29;20219;-59
2023/05/29 02:13:23;;;;;;;8.23;1.93;;;11.80;99.90;;;;;;4922640;29;20199;-59
2023/05/29 02:15:50;;;;;;;4.77;1.93;;;11.80;99.90;;;;;;4916250;29;20188;-59
2023/05/29 02:18:18;;;;;;;2.70;1.90;;;11.50;99.90;;;;;;4907673;29;20196;-59
2023/05/29 02:20:45;;;;;;;7.83;2.33;;;11.80;99.90;;;;;;4914959;29;20684;-59
2023/05/29 02:23:20;;;;;;;6.67;2.10;;;11.90;99.90;;;;;;4916824;29;20569;-59
2023/05/29 02:25:50;;;;;;;7.40;2.40;;;11.80;99.90;;;;;;4931054;29;20210;-59
2023/05/29 02:28:17;;;;;;;6.47;1.87;;;11.70;99.90;;;;;;4928294;29;20198;-61
2023/05/29 02:30:44;;;;;;;5.33;1.77;;;11.80;99.90;;;;;;4932974;29;20215;-60
2023/05/29 02:33:11;;;;;;;4.87;2.20;;;11.70;99.90;;;;;;4931277;29;20215;-60
2023/05/29 02:35:38;;;;;;;4.43;2.13;;;11.70;99.90;;;;;;4929449;29;20602;-66
2023/05/29 02:38:05;;;;;;;5.23;1.90;;;11.70;99.90;;;;;;4926812;29;20255;-66
2023/05/29 02:40:32;;;;;;;5.90;1.77;;;11.50;99.90;;;;;;4926942;29;20184;-76
2023/05/29 02:42:59;;;;;;;13.60;2.70;;;11.40;99.90;;;;;;4913230;29;20203;-67
2023/05/29 02:45:26;;;;;;;7.20;2.27;;;11.50;99.90;;;;;;4922131;29;20227;-67
2023/05/29 02:47:53;;;;;;;6.43;1.83;;;11.60;99.90;;;;;;4926624;29;20207;-66
2023/05/29 02:50:20;;;;;;;11.17;2.50;;;11.60;99.90;;;;;;4915465;29;20191;-64
2023/05/29 02:52:47;;;;;;;7.93;1.80;;;11.60;99.90;;;;;;4928779;29;20195;-59
2023/05/29 02:55:16;;;;;;;4.07;1.77;;;11.40;99.90;;;;;;4928825;29;20203;-59
2023/05/29 02:57:43;;;;;;;3.80;1.83;;;11.40;99.90;;;;;;4920676;29;20196;-60
2023/05/29 03:00:11;;;;;;;4.07;2.00;;;11.60;99.90;;;;;;4923640;29;20736;-59
2023/05/29 03:02:38;;;;;;;8.13;2.00;;;11.80;99.90;;;;;;4916615;29;20238;-59
2023/05/29 03:05:06;;;;;;;6.07;1.77;;;11.90;99.90;;;;;;4914169;29;20205;-61
2023/05/29 03:07:33;;;;;;;5.17;2.20;;;12.10;99.90;;;;;;4917387;29;20626;-59
2023/05/29 03:10:01;;;;;;;5.20;2.03;;;12.20;99.90;;;;;;4903103;29;20489;-60
2023/05/29 03:12:29;;;;;;;4.30;2.23;;;12.30;99.90;;;;;;4922983;29;20703;-59
2023/05/29 03:14:56;;;;;;;10.07;2.73;;;12.10;99.90;;;;;;4914498;29;20226;-59
2023/05/29 03:17:24;;;;;;;5.83;1.93;;;12.30;99.90;;;;;;4911234;29;20959;-59
2023/05/29 03:19:52;;;;;;;7.10;2.70;;;12.30;99.90;;;;;;4913267;29;20202;-59
2023/05/29 03:22:19;;;;;;;7.23;1.97;;;11.90;99.90;;;;;;4926273;29;20275;-59
2023/05/29 03:24:46;;;;;;;4.70;2.20;;;12.00;99.90;;;;;;4907305;29;20207;-60
2023/05/29 03:27:13;;;;;;;5.00;1.97;;;11.80;99.90;;;;;;4909666;29;20291;-60
2023/05/29 03:29:42;;;;;;;10.40;1.90;;;11.70;99.90;;;;;;4913092;29;20877;-63
2023/05/29 03:32:09;;;;;;;6.93;1.93;;;11.60;99.90;;;;;;4907191;29;20708;-60
2023/05/29 03:34:36;;;;;;;7.07;2.47;;;11.60;99.90;;;;;;4910737;29;20195;-61
2023/05/29 03:37:05;;;;;;;5.00;1.87;;;12.00;99.90;;;;;;4914556;29;20204;-61
2023/05/29 03:39:32;;;;;;;4.63;1.90;;;12.20;99.90;;;;;;4912968;29;20302;-61
2023/05/29 03:42:00;;;;;;;6.07;1.87;;;12.50;99.90;;;;;;4915239;29;20208;-60
2023/05/29 03:44:27;;;;;;;10.87;2.30;;;12.50;99.90;;;;;;4914127;29;20219;-60
2023/05/29 03:46:54;;;;;;;8.27;1.70;;;12.50;99.90;;;;;;4915270;29;20690;-60
2023/05/29 03:49:21;;;;;;;7.17;2.13;;;12.80;99.90;;;;;;4922979;29;20570;-60
2023/05/29 03:51:49;;;;;;;7.90;2.23;;;12.50;99.90;;;;;;4914767;29;20222;-60
2023/05/29 03:54:17;;;;;;;7.10;2.07;;;12.30;99.90;;;;;;4911886;29;20215;-59
2023/05/29 03:56:44;;;;;;;7.93;2.27;;;12.30;99.90;;;;;;4913198;29;20212;-61
2023/05/29 03:59:13;;;;;;;2.40;1.53;;;12.20;99.90;;;;;;4912073;29;22477;-61
2023/05/29 04:01:40;;;;;;;6.00;2.03;;;12.20;99.90;;;;;;4914956;29;20199;-60
2023/05/29 04:04:07;;;;;;;5.17;1.47;;;12.20;99.90;;;;;;4918385;29;20259;-60
2023/05/29 04:06:38;;;;;;;8.03;2.40;;;12.20;99.90;;;;;;4914530;29;20650;-60
2023/05/29 04:09:08;;;;;;;3.97;1.73;;;12.50;99.90;;;;;;4932526;29;20207;-60
2023/05/29 04:11:35;;;;;;;5.57;2.13;;;12.40;99.90;;;;;;4875037;29;20589;-60
2023/05/29 04:14:05;;;;;;;5.47;1.80;;;12.20;99.90;;;;;;4925762;29;20291;-60
2023/05/29 04:16:32;;;;;;;11.50;1.73;;;12.40;99.90;;;;;;4932980;29;20192;-60
2023/05/29 04:18:59;;;;;;;9.47;2.77;;;12.30;99.90;;;;;;4919584;29;20200;-61
2023/05/29 04:21:32;;;;;;;7.50;2.40;;;12.50;99.90;;;;;;4902424;29;20199;-60
2023/05/29 04:24:00;;;;;;;3.83;1.83;;;12.80;99.90;;;;;;4906989;29;20595;-60
2023/05/29 04:26:27;;;;;;;8.60;1.90;;;13.00;99.90;;;;;;4934650;29;20192;-63
2023/05/29 04:28:57;;;;;;;4.37;1.47;;;13.30;99.90;;;;;;4916698;29;20302;-60
2023/05/29 04:31:26;;;;;;;5.63;2.00;;;13.30;99.90;;;;;;4920620;29;20220;-61
2023/05/29 04:33:54;;;;;;;4.43;1.97;;;13.90;99.90;;;;;;4918027;29;20195;-59
2023/05/29 04:36:25;;;;;;;6.47;2.43;;;14.50;99.90;;;;;;4923320;29;20192;-59
2023/05/29 04:39:02;;;;;;;5.47;2.10;;;14.90;99.90;;;;;;4930509;29;20257;-60
2023/05/29 04:41:30;;;;;;;23.95;2.28;;;15.50;99.90;;;;;;4945726;29;20411;-60
2023/05/29 04:43:59;;;;;;;16.63;2.53;;;16.00;99.90;;;;;;4916903;29;20578;-59
2023/05/29 04:46:34;;;;;;;6.40;1.92;;;16.00;99.90;;;;;;4929316;29;20191;-58
2023/05/29 04:49:03;;;;;;;9.80;2.13;;;15.90;99.90;;;;;;4922476;29;20204;-58
2023/05/29 04:51:31;;;;;;;9.60;2.30;;;16.10;99.90;;;;;;4935390;29;20707;-60
2023/05/29 04:53:58;;;;;;;9.23;1.90;;;15.80;99.90;;;;;;4910063;29;20197;-59
2023/05/29 04:56:26;;;;;;;4.93;1.77;;;16.10;99.90;;;;;;4915006;29;20259;-60
2023/05/29 04:58:54;;;;;;;7.13;2.22;;;16.40;99.90;;;;;;4910461;29;20204;-59
2023/05/29 05:01:21;;;;;;;16.27;2.50;;;17.40;99.90;;;;;;4901459;29;20629;-60
2023/05/29 05:03:48;;;;;;;10.80;2.30;;;17.90;99.90;;;;;;4920562;29;20240;-57
2023/05/29 05:06:16;;;;;;;8.48;2.90;;;17.40;99.90;;;;;;4907942;29;20223;-60
2023/05/29 05:08:44;;;;;;;16.55;2.88;;;17.70;99.90;;;;;;4920546;29;20224;-60
2023/05/29 05:11:11;;;;;;;8.60;2.53;;;17.10;99.90;;;;;;4907966;29;20207;-62
2023/05/29 05:13:39;;;;;;;10.57;3.15;;;16.60;99.90;;;;;;4894280;29;20653;-61
2023/05/29 05:16:06;;;;;;;12.02;2.50;;;16.10;99.90;;;;;;4906342;29;20207;-63
2023/05/29 05:18:34;;;;;;;10.27;2.60;;;16.80;99.90;;;;;;4891589;29;20211;-61
2023/05/29 05:21:03;;;;;;;6.82;2.25;;;16.90;99.90;;;;;;4913924;29;20220;-61
2023/05/29 05:23:32;;;;;;;7.13;2.50;;;17.60;99.90;;;;;;4912744;29;20207;-60
2023/05/29 05:26:15;;;;;;;8.80;2.83;;;17.60;99.90;;;;;;4913762;29;20756;-61
2023/05/29 05:28:43;;;;;;;7.93;2.55;;;18.00;99.90;;;;;;4901357;29;20720;-60
2023/05/29 05:31:11;;;;;;;7.90;2.47;;;17.90;99.90;;;;;;4915657;29;20214;-69
2023/05/29 05:33:38;;;;;;;12.73;2.53;;;18.40;99.90;;;;;;4918355;29;20209;-69
2023/05/29 05:36:06;;;;;;;12.02;2.75;;;18.80;99.90;;;;;;4907256;29;20207;-68
2023/05/29 05:38:34;;;;;;;7.60;2.35;;;17.30;99.90;;;;;;4927603;29;20210;-68
2023/05/29 05:41:01;;;;;;;6.97;2.33;;;16.70;99.90;;;;;;4918120;29;20616;-67
2023/05/29 05:43:31;;;;;;;9.40;2.35;;;16.60;99.90;;;;;;4913098;29;21092;-68
2023/05/29 05:46:05;;;;;;;10.98;2.50;;;17.70;99.90;;;;;;4911752;29;20213;-68
2023/05/29 05:48:34;;;;;;;9.23;2.55;;;18.50;99.90;;;;;;4920132;29;20204;-68
2023/05/29 05:51:01;;;;;;;5.97;1.77;;;19.40;99.90;;;;;;4935182;29;20215;-68
2023/05/29 05:53:30;;;;;;;7.43;3.10;;;19.40;99.90;;;;;;4910223;29;20235;-68
2023/05/29 05:55:57;;;;;;;6.55;2.40;;;19.50;99.90;;;;;;4919970;29;20239;-68
2023/05/29 05:58:25;;;;;;;6.40;2.08;;;20.20;99.90;;;;;;4909809;29;20225;-69
2023/05/29 06:00:52;;;;;;;5.68;2.13;;;21.70;99.90;;;;;;4915999;29;20670;-72
2023/05/29 06:03:20;;;;;;;16.48;3.03;;;21.90;99.90;;;;;;4915027;29;20246;-69
2023/05/29 06:06:01;;;;;;;8.18;2.50;;;20.40;99.90;;;;;;4919931;29;20194;-68
2023/05/29 06:08:29;;;;;;;5.28;2.40;;;19.60;99.90;;;;;;4913373;29;20299;-70
2023/05/29 06:10:57;;;;;;;7.60;2.03;;;19.30;99.90;;;;;;4888342;29;20251;-68
2023/05/29 06:13:24;;;;;;;8.70;1.95;;;20.50;99.90;;;;;;4905016;29;20346;-66
2023/05/29 06:15:59;;;;;;;6.88;2.17;;;20.30;99.90;;;;;;4913337;29;20584;-68
2023/05/29 06:18:27;;;;;;;10.52;2.65;;;21.10;99.90;;;;;;4895579;29;20556;-73
2023/05/29 06:20:54;;;;;;;15.32;2.85;;;22.10;99.90;;;;;;4910415;29;20215;-67
2023/05/29 06:23:21;;;;;;;21.73;3.00;;;22.40;99.90;;;;;;4928897;29;20199;-68
2023/05/29 06:25:49;;;;;;;7.53;2.10;;;23.00;99.90;;;;;;4916153;29;20678;-68
2023/05/29 06:28:16;;;;;;;17.13;2.55;;;22.80;99.90;;;;;;4907335;29;20203;-66
2023/05/29 06:30:43;;;;;;;8.70;2.58;;;22.80;99.90;;;;;;4931805;29;20682;-68
2023/05/29 06:33:12;;;;;;;7.55;2.20;;;24.10;99.90;;;;;;4928035;29;20219;-68
2023/05/29 06:35:40;;;;;;;5.65;1.75;;;23.90;99.90;;;;;;4931756;29;20202;-69
2023/05/29 06:38:08;;;;;;;5.28;2.10;;;22.90;99.90;;;;;;4924981;29;20635;-68
2023/05/29 06:40:36;;;;;;;6.78;2.40;;;23.50;99.90;;;;;;4914498;29;20286;-67
2023/05/29 06:43:03;;;;;;;8.73;2.45;;;24.20;99.90;;;;;;4925365;29;20208;-67
2023/05/29 06:45:44;;;;;;;6.18;2.10;;;23.50;99.90;;;;;;4935302;29;20213;-67
2023/05/29 06:48:14;;;;;;;6.07;2.15;;;24.00;99.90;;;;;;4927631;29;20199;-67
2023/05/29 06:50:44;;;;;;;8.50;2.05;;;24.60;99.90;;;;;;4923453;29;20218;-67
2023/05/29 06:53:31;;;;;;;8.82;2.13;;;24.20;99.90;;;;;;4926181;29;20229;-67
2023/05/29 06:56:00;;;;;;;8.70;2.58;;;22.50;99.90;;;;;;4906656;29;20208;-69
2023/05/29 06:58:27;;;;;;;5.45;2.03;;;22.40;99.90;;;;;;4924211;29;20559;-68
2023/05/29 07:00:55;;;;;;;6.20;2.00;;;22.00;99.90;;;;;;4904713;29;20618;-69
2023/05/29 07:03:30;;;;;;;5.60;2.10;;;22.70;99.90;;;;;;4905774;29;20257;-67
2023/05/29 07:05:57;;;;;;;7.03;2.00;;;23.80;99.90;;;;;;4889324;29;20291;-69
2023/05/29 07:08:25;;;;;;;5.57;2.20;;;24.70;99.90;;;;;;4917929;29;20200;-68
2023/05/29 07:10:52;;;;;;;9.18;2.20;;;26.90;99.90;;;;;;4907899;29;20208;-68
2023/05/29 07:13:21;;;;;;;7.15;2.40;;;26.70;99.90;;;;;;4895467;29;20239;-67
2023/05/29 07:15:49;;;;;;;4.78;1.63;;;27.20;99.90;;;;;;4920058;29;20839;-68
2023/05/29 07:18:18;;;;;;;5.72;1.90;;;27.30;99.90;;;;;;4898578;29;20203;-67
2023/05/29 07:20:45;;;;;;;6.18;1.90;;;28.40;99.90;;;;;;4909973;29;20232;-66
2023/05/29 07:23:15;;;;;;;5.40;2.13;;;27.20;99.90;;;;;;4914200;29;20203;-66
2023/05/29 07:25:42;;;;;;;6.38;2.10;;;27.30;99.90;;;;;;4923694;29;20263;-67
2023/05/29 07:28:10;;;;;;;8.70;2.30;;;27.50;99.90;;;;;;4924978;29;20221;-67
2023/05/29 07:30:48;;;;;;;6.82;2.20;;;26.20;99.90;;;;;;4911140;29;20291;-67
2023/05/29 07:33:15;;;;;;;6.88;2.30;;;26.90;99.90;;;;;;4886835;29;20271;-67
2023/05/29 07:35:43;;;;;;;6.50;2.60;;;27.40;99.90;;;;;;4910992;29;20550;-69
2023/05/29 07:38:10;;;;;;;7.32;2.90;;;28.40;99.90;;;;;;4926651;29;20215;-68
2023/05/29 07:40:39;;;;;;;8.45;2.60;;;27.90;99.90;;;;;;4905229;29;20283;-69
2023/05/29 07:43:28;;;;;;;6.15;2.65;;;25.80;99.90;;;;;;4897186;29;20200;-69
2023/05/29 07:45:59;;;;;;;5.03;2.63;;;27.00;99.90;;;;;;4908872;29;20204;-68
2023/05/29 07:48:26;;;;;;;5.35;2.35;;;28.20;99.90;;;;;;4934270;29;20566;-68
2023/05/29 07:50:54;;;;;;;6.47;2.60;;;26.30;99.90;;;;;;4926976;29;20550;-68
2023/05/29 07:53:23;;;;;;;6.85;2.60;;;27.40;99.90;;;;;;4894794;29;20208;-68
2023/05/29 07:55:50;;;;;;;8.15;2.30;;;28.20;99.90;;;;;;4914896;29;20242;-68
2023/05/29 07:58:17;;;;;;;6.70;2.42;;;28.30;99.90;;;;;;4923512;29;20204;-69
2023/05/29 08:00:45;;;;;;;5.13;2.13;;;28.70;99.90;;;;;;4914711;29;20211;-67
2023/05/29 08:03:13;;;;;;;5.10;2.35;;;28.20;99.90;;;;;;4912498;29;20263;-68
2023/05/29 08:05:59;;;;;;;7.30;2.38;;;28.00;99.90;;;;;;4908400;29;20673;-69
2023/05/29 08:08:27;;;;;;;5.45;1.65;;;26.90;99.90;;;;;;4910172;29;20637;-69
2023/05/29 08:10:54;;;;;;;5.88;2.35;;;26.70;99.90;;;;;;4894562;29;20733;-68
2023/05/29 08:13:22;;;;;;;7.13;2.25;;;25.10;99.90;;;;;;4926872;29;20251;-69
2023/05/29 08:15:49;;;;;;;6.03;1.63;;;24.30;99.90;;;;;;4910117;29;20209;-68
2023/05/29 08:18:16;;;;;;;4.10;1.52;;;25.20;99.90;;;;;;4912249;29;20231;-68
2023/05/29 08:20:44;;;;;;;9.48;2.10;;;25.40;99.90;;;;;;4907662;29;20199;-69
2023/05/29 08:23:11;;;;;;;7.28;2.25;;;25.20;99.90;;;;;;4907776;29;20686;-68
2023/05/29 08:25:38;;;;;;;28.98;3.47;;;25.30;99.90;;;;;;4923770;29;20736;-68
2023/05/29 08:28:05;;;;;;;5.75;1.85;;;26.10;99.90;;;;;;4926679;29;20282;-68
2023/05/29 08:30:32;;;;;;;5.80;2.30;;;27.80;99.90;;;;;;4930735;29;20234;-69
2023/05/29 08:32:59;;;;;;;8.85;1.98;;;25.80;99.90;;;;;;4925473;29;20215;-69
2023/05/29 08:35:26;;;;;;;4.60;1.88;;;25.40;99.90;;;;;;4928818;29;20204;-68
2023/05/29 08:37:53;;;;;;;7.25;2.05;;;25.40;99.90;;;;;;4912797;29;20224;-68
2023/05/29 08:40:20;;;;;;;6.03;2.00;;;27.50;99.90;;;;;;4913385;29;20207;-69
2023/05/29 08:42:59;;;;;;;5.47;2.15;;;28.10;99.90;;;;;;4905410;29;20559;-69
2023/05/29 08:45:28;;;;;;;6.75;2.20;;;29.20;99.90;;;;;;4905256;29;20200;-69
2023/05/29 08:48:00;;;;;;;4.28;2.03;;;27.80;99.90;;;;;;4907610;29;20205;-69
2023/05/29 08:50:27;;;;;;;4.53;1.48;;;26.40;99.90;;;;;;4906201;29;20196;-69
2023/05/29 08:52:56;;;;;;;7.30;2.17;;;26.10;99.90;;;;;;4896656;29;20220;-70
2023/05/29 08:55:23;;;;;;;4.97;1.77;;;28.00;99.90;;;;;;4903367;29;20317;-69
2023/05/29 08:57:50;;;;;;;6.25;2.55;;;28.40;99.90;;;;;;4899578;29;20314;-69
2023/05/29 09:00:20;;;;;;;8.25;2.45;;;26.60;99.90;;;;;;4902803;29;20248;-70
2023/05/29 09:02:47;;;;;;;5.47;2.05;;;28.00;99.90;;;;;;4902153;29;20231;-68
2023/05/29 09:05:14;;;;;;;6.35;2.22;;;28.40;99.90;;;;;;4922161;29;20256;-68
2023/05/29 09:07:41;;;;;;;11.38;2.22;;;26.40;99.90;;;;;;4928669;29;20865;-69
2023/05/29 09:10:09;;;;;;;6.65;1.75;;;26.10;99.90;;;;;;4919984;29;20199;-69
2023/05/29 09:12:36;;;;;;;4.75;2.30;;;28.00;99.90;;;;;;4926946;29;20224;-69
2023/05/29 09:15:18;;;;;;;5.32;1.95;;;28.10;99.90;;;;;;4925296;29;20203;-67
2023/05/29 09:17:53;;;;;;;9.27;2.10;;;27.50;99.90;;;;;;4924406;29;20196;-69
2023/05/29 09:20:23;;;;;;;13.52;2.25;;;27.20;99.90;;;;;;4929201;29;20205;-68
2023/05/29 09:23:02;;;;;;;6.22;2.22;;;27.70;99.90;;;;;;4923824;29;20200;-67
2023/05/29 09:25:32;;;;;;;18.67;3.65;;;28.60;99.90;;;;;;4922702;29;20776;-69
2023/05/29 09:28:08;;;;;;;7.10;1.90;;;26.90;99.90;;;;;;4909593;29;20208;-67
2023/05/29 09:30:39;;;;;;;9.10;2.20;;;27.40;99.90;;;;;;4920181;29;20211;-69
2023/05/29 09:33:08;;;;;;;4.53;1.80;;;26.70;99.90;;;;;;4926826;29;20219;-69
2023/05/29 09:35:39;;;;;;;6.90;2.30;;;27.00;99.90;;;;;;4911921;29;20778;-67
2023/05/29 09:38:08;;;;;;;8.98;2.40;;;27.00;99.90;;;;;;4922518;29;20199;-71
2023/05/29 09:40:40;;;;;;;5.93;2.17;;;27.00;99.90;;;;;;4907624;29;20679;-67
2023/05/29 09:43:18;;;;;;;5.43;2.10;;;26.20;99.90;;;;;;4922494;29;20666;-67
2023/05/29 09:45:47;;;;;;;5.88;1.92;;;27.10;99.90;;;;;;4915060;29;20216;-66
2023/05/29 09:48:22;;;;;;;7.40;2.10;;;27.40;99.90;;;;;;4909020;29;20258;-62
2023/05/29 09:50:49;;;;;;;10.95;2.40;;;27.00;99.90;;;;;;4918135;29;20669;-64
2023/05/29 09:53:20;;;;;;;5.95;1.92;;;25.60;99.90;;;;;;4925605;29;20223;-64
2023/05/29 09:55:48;;;;;;;5.80;1.75;;;25.90;99.90;;;;;;4927139;29;20198;-66
2023/05/29 09:58:15;;;;;;;4.28;1.88;;;26.20;99.90;;;;;;4924442;29;20200;-64
2023/05/29 10:00:43;;;;;;;5.07;1.85;;;27.30;99.90;;;;;;4931281;29;20869;-64
2023/05/29 10:03:12;;;;;;;2.90;1.92;;;26.20;99.90;;;;;;4899900;29;20706;-65
2023/05/29 10:05:40;;;;;;;6.10;1.70;;;25.70;99.90;;;;;;4912158;29;20206;-68
2023/05/29 10:08:14;;;;;;;5.05;1.67;;;27.00;99.90;;;;;;4909059;29;20245;-70
2023/05/29 10:10:44;;;;;;;8.73;2.22;;;27.60;99.90;;;;;;4900763;29;20733;-67
2023/05/29 10:13:14;;;;;;;5.82;1.70;;;28.00;99.90;;;;;;4897254;29;20976;-65
2023/05/29 10:15:45;;;;;;;5.75;1.75;;;27.30;99.90;;;;;;4896900;29;20264;-60
2023/05/29 10:18:35;;;;;;;9.80;1.75;;;26.50;99.90;;;;;;4916232;29;20431;-60
2023/05/29 10:21:02;;;;;;;6.07;2.05;;;27.40;99.90;;;;;;4893975;29;20850;-59
2023/05/29 10:23:31;;;;;;;8.38;2.17;;;28.10;99.90;;;;;;4911755;29;20224;-60
2023/05/29 10:26:13;;;;;;;4.60;1.73;;;27.30;99.90;;;;;;4908321;29;20216;-59
2023/05/29 10:28:49;;;;;;;9.10;1.88;;;28.60;99.90;;;;;;4910630;29;20211;-59
2023/05/29 10:31:24;;;;;;;4.57;1.95;;;29.00;99.90;;;;;;4917048;29;20226;-59
2023/05/29 10:34:18;;;;;;;5.60;2.10;;;28.50;99.90;;;;;;4912792;29;20235;-56
2023/05/29 10:36:56;;;;;;;9.43;1.73;;;27.80;99.90;;;;;;4907796;29;20294;-59
2023/05/29 10:39:23;;;;;;;4.70;2.05;;;27.70;99.90;;;;;;4911996;29;20312;-59
2023/05/29 10:41:50;;;;;;;6.07;2.38;;;27.80;99.90;;;;;;4908698;29;20204;-60
2023/05/29 10:44:32;;;;;;;14.70;2.15;;;27.10;99.90;;;;;;4923228;29;20849;-60
2023/05/29 10:46:59;;;;;;;11.68;2.30;;;28.20;99.90;;;;;;4908453;29;20204;-57
2023/05/29 10:49:29;;;;;;;7.20;2.08;;;28.70;99.90;;;;;;4906440;29;20279;-57
2023/05/29 10:51:57;;;;;;;78.82;4.57;;;28.40;99.90;;;;;;4930853;29;20203;-59
2023/05/29 10:54:25;;;;;;;3.60;2.10;;;27.90;99.90;;;;;;4908892;29;20219;-58
2023/05/29 10:56:56;;;;;;;6.18;1.88;;;27.80;99.90;;;;;;4902449;29;20786;-59
2023/05/29 10:59:27;;;;;;;5.20;1.60;;;27.50;99.90;;;;;;4904309;29;20703;-59
2023/05/29 11:01:55;;;;;;;7.65;2.00;;;27.70;99.90;;;;;;4909453;29;20589;-59
2023/05/29 11:04:26;;;;;;;5.75;2.15;;;26.30;99.90;;;;;;4930519;29;20203;-58
2023/05/29 11:06:53;;;;;;;3.88;1.60;;;25.00;99.90;;;;;;4913785;29;20199;-57
2023/05/29 11:09:37;;;;;;;6.15;2.42;;;25.40;99.90;;;;;;4927899;29;20215;-59
2023/05/29 11:12:14;;;;;;;5.03;1.70;;;25.40;99.90;;;;;;4918578;29;20195;-59
2023/05/29 11:14:56;;;;;;;5.47;1.98;;;26.80;99.90;;;;;;4917793;29;20737;-56
2023/05/29 11:17:30;;;;;;;4.70;1.65;;;26.40;99.90;;;;;;4924246;29;20195;-59
2023/05/29 11:20:02;;;;;;;6.93;1.90;;;26.80;99.90;;;;;;4920432;29;20686;-60
2023/05/29 11:22:54;;;;;;;4.97;1.77;;;25.70;99.90;;;;;;4929158;29;20275;-59
2023/05/29 11:25:22;;;;;;;6.53;2.10;;;26.10;99.90;;;;;;4911462;29;20215;-59
2023/05/29 11:27:51;;;;;;;2.78;1.77;;;24.50;99.90;;;;;;4928137;29;20203;-57
2023/05/29 11:30:22;;;;;;;7.13;2.08;;;24.90;99.90;;;;;;4909687;29;20207;-56
2023/05/29 11:32:52;;;;;;;2.80;1.70;;;24.00;99.90;;;;;;4923565;29;20184;-57
2023/05/29 11:35:22;;;;;;;7.07;2.05;;;24.70;99.90;;;;;;4920206;29;22697;-58
2023/05/29 11:37:50;;;;;;;6.80;2.17;;;26.30;99.90;;;;;;4907854;29;20192;-57
2023/05/29 11:40:18;;;;;;;6.28;1.83;;;26.90;99.90;;;;;;4921638;29;20252;-59
2023/05/29 11:42:48;;;;;;;4.97;2.05;;;27.40;99.90;;;;;;4928216;29;20689;-60
2023/05/29 11:45:21;;;;;;;5.10;2.00;;;27.00;99.90;;;;;;4929812;29;20861;-57
2023/05/29 11:47:59;;;;;;;7.22;2.47;;;25.70;99.90;;;;;;4934644;29;20773;-57
2023/05/29 11:50:31;;;;;;;4.50;1.98;;;25.30;99.90;;;;;;4923610;29;20665;-60
2023/05/29 11:52:59;;;;;;;5.13;1.95;;;24.70;99.90;;;;;;4921051;29;20231;-60
2023/05/29 11:55:27;;;;;;;2.63;1.58;;;25.50;99.90;;;;;;4917315;29;20606;-58
2023/05/29 11:57:59;;;;;;;4.68;1.92;;;25.30;99.90;;;;;;4919642;29;20199;-58
2023/05/29 12:00:31;;;;;;;9.27;2.38;;;25.90;99.90;;;;;;4922683;29;20195;-56
2023/05/29 12:03:03;;;;;;;4.80;1.95;;;25.00;99.90;;;;;;4916400;29;21107;-59
2023/05/29 12:05:44;;;;;;;4.88;1.60;;;24.70;99.90;;;;;;4917054;29;20655;-61
2023/05/29 12:08:12;;;;;;;5.25;1.83;;;25.70;99.90;;;;;;4918330;29;20625;-60
2023/05/29 12:10:49;;;;;;;5.07;1.88;;;24.80;99.90;;;;;;4930159;29;20256;-59
2023/05/29 12:13:19;;;;;;;3.78;1.52;;;24.90;99.90;;;;;;4908597;29;20220;-59
2023/05/29 12:15:48;;;;;;;6.80;1.90;;;24.20;99.90;;;;;;4923415;29;20283;-59
2023/05/29 12:18:16;;;;;;;2.65;1.77;;;24.10;99.90;;;;;;4931953;29;20203;-68
2023/05/29 12:20:43;;;;;;;4.68;1.98;;;24.40;99.90;;;;;;4925660;29;20665;-69
2023/05/29 12:23:11;;;;;;;3.08;1.65;;;24.10;99.90;;;;;;4924541;29;20224;-68
2023/05/29 12:25:39;;;;;;;4.78;1.95;;;23.80;99.90;;;;;;4904326;29;20691;-68
2023/05/29 12:28:06;;;;;;;3.03;2.08;;;22.40;99.90;;;;;;4916524;29;20206;-68
2023/05/29 12:30:39;;;;;;;3.58;2.08;;;21.80;99.90;;;;;;4915953;29;20260;-67
2023/05/29 12:33:06;;;;;;;4.40;1.80;;;22.70;99.90;;;;;;4920139;29;20196;-67
2023/05/29 12:35:33;;;;;;;3.35;1.70;;;23.30;99.90;;;;;;4922836;29;20196;-66
2023/05/29 12:38:05;;;;;;;4.88;1.95;;;23.20;99.90;;;;;;4936807;29;20203;-70
2023/05/29 12:40:36;;;;;;;4.63;2.05;;;23.20;99.90;;;;;;4931085;29;20673;-66
2023/05/29 12:43:06;;;;;;;3.70;1.85;;;23.70;99.90;;;;;;4946222;29;20668;-66
2023/05/29 12:45:34;;;;;;;5.90;1.90;;;23.10;99.90;;;;;;4948510;29;20658;-67
2023/05/29 12:48:06;;;;;;;7.15;1.83;;;23.20;99.90;;;;;;4939480;29;20258;-67
2023/05/29 12:50:38;;;;;;;7.18;1.77;;;22.30;99.90;;;;;;4933224;29;20557;-68
2023/05/29 12:53:08;;;;;;;5.32;2.22;;;22.10;99.90;;;;;;4948199;29;20195;-68
2023/05/29 12:55:38;;;;;;;3.45;1.88;;;21.40;99.90;;;;;;4920874;29;20341;-67
2023/05/29 12:58:10;;;;;;;4.25;2.20;;;21.60;99.90;;;;;;4916265;29;20206;-67